Hemingford, NE (69348)

6:38 PM MDT on April 21, 2015 (GMT -0600)
NEDOR | | Change Station
CLOSE
Current Station
Personal Weather Station
Location: Hemingford, NE
Elevation: 4136 ft
Nearby Weather Stations

Elev 4136 ft 42.32 °N, 102.97 °W | Updated 23 minutes ago

Clear
Clear
56 °F
Feels Like 56 °F
N
11
Wind Variable Wind from NE
Gusts 0.0 mph

Today
High -- | Low -- °F
--% Chance of Precip.
Yesterday
High -- | Low -- °F
Precip. -- in
6:02 AM 7:40 PM
Waxing Crescent, 13% visible
Pressure 29.89 in
Visibility 10.0 miles
Clouds Clear
Dew Point 27 °F
Humidity 33%
Rainfall in
Snow Depth Not available.
UV 1 out of 12
Pollen 9.90 out of 12
Air Quality Not available.
Flu Activity Local Activity
METAR KAIA 212353Z AUTO 04017KT 10SM CLR 15/M02 A2987 RMK AO2 SLP120 T01501017 10189 20150 53014

More Conditions Fewer Conditions

Pressure 29.89 in
Visibility 10.0 miles
Clouds Clear
Dew Point 27 °F
Humidity 33%
Rainfall in
Snow Depth Not available.
UV 1 out of 12
Pollen 9.90 out of 12
Air Quality Not available.
Flu Activity Local Activity
METAR KAIA 212353Z AUTO 04017KT 10SM CLR 15/M02 A2987 RMK AO2 SLP120 T01501017 10189 20150 53014

More Conditions Fewer Conditions

10-Day Weather Forecast

Almanac

Astronomy

Apr. 21, 2015 Rise Set
Actual Time
Civil Twilight
Nautical Twilight
Astronomical Twilight
Moon
Length of Visible Light
Length of Day
Tomorrow will be .
, % of the Moon is Illuminated

Today's Extremes

State Highs State Lows

Community

WunderPhotos

Upload Photos

1,815,588 photos uploaded!

WunderBlogs® & News

Nearby

Air Quality

  Air Quality AQ Index Pollutant
Not available.

Snow Depth

Station Depth Elevation

Earthquake Activity

City Distance Mag. Time & Date
Minimum magnitude displayed is 2.5.

Coastal Water Temperatures

Place Temperature

Stations

Nearby Weather Stations

Station Location Temp. Windchill Dew Point Humidity Wind Precip. Elev Updated Type